aviador You're here:

CYKL Decoded Metar

SCHEFFERVILLE in QC, CANADA
Report Time2017-12-11 00:18:00
UTC Time2017-12-11 00:30:00
Flight Rules ifr IFR
Wind350° at 05 kt
W.Decomp.*RWY 36: 4.9 kt HW 1.0 kt RCW
W.Rank350° ranks 12
Current wind is below 350° avg. (7.2)
Visibility4023 m
Phenomena:Mist
Clouds:N/A
Expected CloudBase > 1,200 ft AGL from Temp-Dew spread
CeilingNone
Temp-24°C (ISA -36)
Dew Point-27°C (76% RH)
AAT-29.6°C
QNH995 hPa
Density Alt-2,224 ft
Elevation1,709 ft
Report Wrong Elevation
Raw Report
SPECI CYKL 110018Z AUTO 35005KT 2 1/2SM BR CLR M24/M27 A2937 RMK VIS
VRB 3/4-3 SLP015=

Extra information for CYKL:More info

Metar Taf Metar & Taf Last 4 Metars F.Rules Stats Wind Profile Meteogram Temp Stats Airport Information Weather charts Add Link Nearby VenuesMetar ALERT Operation Metar Decoded Social comments